sensor_id;sensor_type;location;lat;lon;timestamp;P1;durP1;ratioP1;P2;durP2;ratioP2
73980;SDS011;62348;51.412;5.436;2023-08-30T00:01:12;10.05;;;7.82;;
73980;SDS011;62348;51.412;5.436;2023-08-30T00:03:38;12.98;;;7.65;;
73980;SDS011;62348;51.412;5.436;2023-08-30T00:06:03;12.13;;;8.40;;
73980;SDS011;62348;51.412;5.436;2023-08-30T00:08:30;9.77;;;8.77;;
73980;SDS011;62348;51.412;5.436;2023-08-30T00:10:56;10.52;;;8.20;;
73980;SDS011;62348;51.412;5.436;2023-08-30T00:13:23;10.65;;;8.25;;
73980;SDS011;62348;51.412;5.436;2023-08-30T00:15:50;9.52;;;7.75;;
73980;SDS011;62348;51.412;5.436;2023-08-30T00:18:15;10.32;;;7.28;;
73980;SDS011;62348;51.412;5.436;2023-08-30T00:20:43;8.63;;;7.72;;
73980;SDS011;62348;51.412;5.436;2023-08-30T00:23:09;11.85;;;8.23;;
73980;SDS011;62348;51.412;5.436;2023-08-30T00:25:34;9.15;;;8.02;;
73980;SDS011;62348;51.412;5.436;2023-08-30T00:28:00;8.55;;;7.53;;
73980;SDS011;62348;51.412;5.436;2023-08-30T00:30:25;12.35;;;8.20;;
73980;SDS011;62348;51.412;5.436;2023-08-30T00:32:50;10.93;;;7.80;;
73980;SDS011;62348;51.412;5.436;2023-08-30T00:35:16;9.77;;;7.82;;
73980;SDS011;62348;51.412;5.436;2023-08-30T00:37:41;9.95;;;7.80;;
73980;SDS011;62348;51.412;5.436;2023-08-30T00:40:07;10.18;;;8.20;;
73980;SDS011;62348;51.412;5.436;2023-08-30T00:42:33;8.43;;;7.53;;
73980;SDS011;62348;51.412;5.436;2023-08-30T00:44:58;8.52;;;7.22;;
73980;SDS011;62348;51.412;5.436;2023-08-30T00:47:24;14.35;;;8.02;;
73980;SDS011;62348;51.412;5.436;2023-08-30T00:49:49;9.48;;;7.53;;
73980;SDS011;62348;51.412;5.436;2023-08-30T00:52:14;9.30;;;7.07;;
73980;SDS011;62348;51.412;5.436;2023-08-30T00:54:40;10.10;;;7.88;;
73980;SDS011;62348;51.412;5.436;2023-08-30T00:57:06;8.18;;;6.93;;
73980;SDS011;62348;51.412;5.436;2023-08-30T00:59:32;9.50;;;7.45;;
73980;SDS011;62348;51.412;5.436;2023-08-30T01:01:58;9.73;;;7.60;;
73980;SDS011;62348;51.412;5.436;2023-08-30T01:04:24;8.98;;;7.18;;
73980;SDS011;62348;51.412;5.436;2023-08-30T01:06:50;7.80;;;7.00;;
73980;SDS011;62348;51.412;5.436;2023-08-30T01:09:17;10.25;;;6.88;;
73980;SDS011;62348;51.412;5.436;2023-08-30T01:14:38;10.40;;;7.30;;
73980;SDS011;62348;51.412;5.436;2023-08-30T01:17:07;9.23;;;7.60;;
73980;SDS011;62348;51.412;5.436;2023-08-30T01:19:42;8.57;;;7.15;;
73980;SDS011;62348;51.412;5.436;2023-08-30T01:25:17;8.88;;;7.22;;
73980;SDS011;62348;51.412;5.436;2023-08-30T01:27:52;7.50;;;6.75;;
73980;SDS011;62348;51.412;5.436;2023-08-30T01:30:19;9.45;;;7.43;;
73980;SDS011;62348;51.412;5.436;2023-08-30T01:32:46;8.18;;;7.28;;
73980;SDS011;62348;51.412;5.436;2023-08-30T01:35:13;8.15;;;7.03;;
73980;SDS011;62348;51.412;5.436;2023-08-30T01:37:43;10.02;;;7.68;;
73980;SDS011;62348;51.412;5.436;2023-08-30T01:40:10;10.20;;;7.70;;
73980;SDS011;62348;51.412;5.436;2023-08-30T01:42:37;8.25;;;7.45;;
73980;SDS011;62348;51.412;5.436;2023-08-30T01:45:04;9.90;;;7.85;;
73980;SDS011;62348;51.412;5.436;2023-08-30T01:47:33;10.48;;;7.18;;
73980;SDS011;62348;51.412;5.436;2023-08-30T01:50:00;10.50;;;7.55;;
73980;SDS011;62348;51.412;5.436;2023-08-30T01:52:26;9.70;;;7.70;;
73980;SDS011;62348;51.412;5.436;2023-08-30T01:54:52;10.82;;;8.60;;
73980;SDS011;62348;51.412;5.436;2023-08-30T01:57:20;10.57;;;7.68;;
73980;SDS011;62348;51.412;5.436;2023-08-30T01:59:45;10.07;;;8.00;;
73980;SDS011;62348;51.412;5.436;2023-08-30T02:02:11;10.18;;;7.45;;
73980;SDS011;62348;51.412;5.436;2023-08-30T02:04:36;11.07;;;8.68;;
73980;SDS011;62348;51.412;5.436;2023-08-30T02:07:03;11.73;;;9.23;;
73980;SDS011;62348;51.412;5.436;2023-08-30T02:09:38;10.80;;;8.82;;
73980;SDS011;62348;51.412;5.436;2023-08-30T02:12:09;10.63;;;8.70;;
73980;SDS011;62348;51.412;5.436;2023-08-30T02:14:50;12.23;;;9.27;;
73980;SDS011;62348;51.412;5.436;2023-08-30T02:17:15;10.63;;;9.27;;
73980;SDS011;62348;51.412;5.436;2023-08-30T02:19:43;10.95;;;8.50;;
73980;SDS011;62348;51.412;5.436;2023-08-30T02:22:09;10.93;;;9.38;;
73980;SDS011;62348;51.412;5.436;2023-08-30T02:24:34;13.10;;;9.23;;
73980;SDS011;62348;51.412;5.436;2023-08-30T02:27:00;15.48;;;11.00;;
73980;SDS011;62348;51.412;5.436;2023-08-30T02:29:25;12.57;;;9.63;;
73980;SDS011;62348;51.412;5.436;2023-08-30T02:31:51;11.10;;;9.35;;
73980;SDS011;62348;51.412;5.436;2023-08-30T02:34:16;10.18;;;9.02;;
73980;SDS011;62348;51.412;5.436;2023-08-30T02:36:41;13.80;;;9.40;;
73980;SDS011;62348;51.412;5.436;2023-08-30T02:39:07;11.57;;;10.25;;
73980;SDS011;62348;51.412;5.436;2023-08-30T02:41:32;12.82;;;9.75;;
73980;SDS011;62348;51.412;5.436;2023-08-30T02:43:59;14.93;;;10.70;;
73980;SDS011;62348;51.412;5.436;2023-08-30T02:46:24;14.45;;;10.32;;
73980;SDS011;62348;51.412;5.436;2023-08-30T02:48:50;12.70;;;10.10;;
73980;SDS011;62348;51.412;5.436;2023-08-30T02:51:15;11.18;;;9.75;;
73980;SDS011;62348;51.412;5.436;2023-08-30T02:53:42;11.35;;;8.82;;
73980;SDS011;62348;51.412;5.436;2023-08-30T02:56:07;11.82;;;9.48;;
73980;SDS011;62348;51.412;5.436;2023-08-30T02:58:32;15.68;;;9.18;;
73980;SDS011;62348;51.412;5.436;2023-08-30T03:00:58;13.90;;;10.10;;
73980;SDS011;62348;51.412;5.436;2023-08-30T03:03:24;15.10;;;9.38;;
73980;SDS011;62348;51.412;5.436;2023-08-30T03:05:49;11.93;;;9.35;;
73980;SDS011;62348;51.412;5.436;2023-08-30T03:08:15;13.43;;;10.13;;
73980;SDS011;62348;51.412;5.436;2023-08-30T03:10:40;13.63;;;10.30;;
73980;SDS011;62348;51.412;5.436;2023-08-30T03:13:06;12.45;;;10.23;;
73980;SDS011;62348;51.412;5.436;2023-08-30T03:15:31;13.27;;;10.65;;
73980;SDS011;62348;51.412;5.436;2023-08-30T03:17:59;13.98;;;11.18;;
73980;SDS011;62348;51.412;5.436;2023-08-30T03:20:24;13.93;;;10.50;;
73980;SDS011;62348;51.412;5.436;2023-08-30T03:22:50;13.88;;;10.75;;
73980;SDS011;62348;51.412;5.436;2023-08-30T03:25:15;13.30;;;10.00;;
73980;SDS011;62348;51.412;5.436;2023-08-30T03:27:42;15.85;;;12.00;;
73980;SDS011;62348;51.412;5.436;2023-08-30T03:30:09;12.00;;;10.13;;
73980;SDS011;62348;51.412;5.436;2023-08-30T03:32:35;14.02;;;11.00;;
73980;SDS011;62348;51.412;5.436;2023-08-30T03:35:02;15.15;;;12.63;;
73980;SDS011;62348;51.412;5.436;2023-08-30T03:37:28;17.15;;;11.70;;
73980;SDS011;62348;51.412;5.436;2023-08-30T03:39:54;18.30;;;12.52;;
73980;SDS011;62348;51.412;5.436;2023-08-30T03:42:19;14.35;;;12.25;;
73980;SDS011;62348;51.412;5.436;2023-08-30T03:44:44;16.67;;;12.98;;
73980;SDS011;62348;51.412;5.436;2023-08-30T03:47:10;14.75;;;12.18;;
73980;SDS011;62348;51.412;5.436;2023-08-30T03:49:35;17.25;;;13.35;;
73980;SDS011;62348;51.412;5.436;2023-08-30T03:52:01;16.35;;;12.85;;
73980;SDS011;62348;51.412;5.436;2023-08-30T03:54:26;14.82;;;12.30;;
73980;SDS011;62348;51.412;5.436;2023-08-30T03:56:52;15.48;;;13.35;;
73980;SDS011;62348;51.412;5.436;2023-08-30T03:59:17;15.85;;;12.15;;
73980;SDS011;62348;51.412;5.436;2023-08-30T04:01:43;15.68;;;13.77;;
73980;SDS011;62348;51.412;5.436;2023-08-30T04:04:09;17.63;;;13.43;;
73980;SDS011;62348;51.412;5.436;2023-08-30T04:06:35;16.00;;;13.70;;
73980;SDS011;62348;51.412;5.436;2023-08-30T04:09:00;15.63;;;12.95;;
73980;SDS011;62348;51.412;5.436;2023-08-30T04:11:26;16.45;;;13.50;;
73980;SDS011;62348;51.412;5.436;2023-08-30T04:13:51;20.40;;;13.95;;
73980;SDS011;62348;51.412;5.436;2023-08-30T04:16:17;16.60;;;13.25;;
73980;SDS011;62348;51.412;5.436;2023-08-30T04:18:43;19.70;;;13.32;;
73980;SDS011;62348;51.412;5.436;2023-08-30T04:21:08;16.80;;;13.43;;
73980;SDS011;62348;51.412;5.436;2023-08-30T04:23:34;16.90;;;13.90;;
73980;SDS011;62348;51.412;5.436;2023-08-30T04:26:00;15.52;;;13.07;;
73980;SDS011;62348;51.412;5.436;2023-08-30T04:28:25;18.30;;;13.70;;
73980;SDS011;62348;51.412;5.436;2023-08-30T04:30:55;17.10;;;13.68;;
73980;SDS011;62348;51.412;5.436;2023-08-30T04:33:21;15.90;;;13.68;;
73980;SDS011;62348;51.412;5.436;2023-08-30T04:35:50;16.60;;;13.40;;
73980;SDS011;62348;51.412;5.436;2023-08-30T04:38:16;17.10;;;13.25;;
73980;SDS011;62348;51.412;5.436;2023-08-30T04:40:42;17.35;;;14.65;;
73980;SDS011;62348;51.412;5.436;2023-08-30T04:43:07;14.90;;;13.07;;
73980;SDS011;62348;51.412;5.436;2023-08-30T04:45:34;19.92;;;13.65;;
73980;SDS011;62348;51.412;5.436;2023-08-30T04:48:02;18.67;;;14.10;;
73980;SDS011;62348;51.412;5.436;2023-08-30T04:50:28;19.42;;;14.35;;
73980;SDS011;62348;51.412;5.436;2023-08-30T04:52:53;19.58;;;14.60;;
73980;SDS011;62348;51.412;5.436;2023-08-30T04:55:19;21.38;;;13.88;;
73980;SDS011;62348;51.412;5.436;2023-08-30T04:57:44;17.90;;;14.57;;
73980;SDS011;62348;51.412;5.436;2023-08-30T05:00:11;21.30;;;15.52;;
73980;SDS011;62348;51.412;5.436;2023-08-30T05:02:37;20.73;;;15.27;;
73980;SDS011;62348;51.412;5.436;2023-08-30T05:05:03;18.88;;;15.05;;
73980;SDS011;62348;51.412;5.436;2023-08-30T05:07:28;17.33;;;14.82;;
73980;SDS011;62348;51.412;5.436;2023-08-30T05:09:54;17.25;;;14.70;;
73980;SDS011;62348;51.412;5.436;2023-08-30T05:12:20;20.30;;;15.93;;
73980;SDS011;62348;51.412;5.436;2023-08-30T05:14:45;17.17;;;14.68;;
73980;SDS011;62348;51.412;5.436;2023-08-30T05:17:10;21.23;;;14.55;;
73980;SDS011;62348;51.412;5.436;2023-08-30T05:19:36;19.40;;;14.95;;
73980;SDS011;62348;51.412;5.436;2023-08-30T05:22:01;18.38;;;14.85;;
73980;SDS011;62348;51.412;5.436;2023-08-30T05:24:26;20.70;;;14.57;;
73980;SDS011;62348;51.412;5.436;2023-08-30T05:26:53;18.15;;;14.00;;
73980;SDS011;62348;51.412;5.436;2023-08-30T05:29:18;16.55;;;14.57;;
73980;SDS011;62348;51.412;5.436;2023-08-30T05:31:44;17.75;;;14.20;;
73980;SDS011;62348;51.412;5.436;2023-08-30T05:34:09;15.15;;;13.15;;
73980;SDS011;62348;51.412;5.436;2023-08-30T05:36:35;17.50;;;14.02;;
73980;SDS011;62348;51.412;5.436;2023-08-30T05:39:01;15.70;;;14.02;;
73980;SDS011;62348;51.412;5.436;2023-08-30T05:41:26;18.08;;;13.85;;
73980;SDS011;62348;51.412;5.436;2023-08-30T05:43:52;17.17;;;13.10;;
73980;SDS011;62348;51.412;5.436;2023-08-30T05:46:17;15.25;;;13.15;;
73980;SDS011;62348;51.412;5.436;2023-08-30T05:48:42;16.13;;;13.55;;
73980;SDS011;62348;51.412;5.436;2023-08-30T05:51:08;19.90;;;13.27;;
73980;SDS011;62348;51.412;5.436;2023-08-30T05:53:33;17.30;;;13.90;;
73980;SDS011;62348;51.412;5.436;2023-08-30T05:55:59;21.70;;;13.50;;
73980;SDS011;62348;51.412;5.436;2023-08-30T05:58:24;16.60;;;13.15;;
73980;SDS011;62348;51.412;5.436;2023-08-30T06:00:50;16.50;;;13.63;;
73980;SDS011;62348;51.412;5.436;2023-08-30T06:03:15;16.58;;;13.63;;
73980;SDS011;62348;51.412;5.436;2023-08-30T06:05:41;17.83;;;14.35;;
73980;SDS011;62348;51.412;5.436;2023-08-30T06:08:08;18.67;;;13.50;;
73980;SDS011;62348;51.412;5.436;2023-08-30T06:10:35;19.13;;;13.40;;
73980;SDS011;62348;51.412;5.436;2023-08-30T06:13:01;16.23;;;13.93;;
73980;SDS011;62348;51.412;5.436;2023-08-30T06:15:27;15.55;;;13.40;;
73980;SDS011;62348;51.412;5.436;2023-08-30T06:17:53;17.73;;;14.05;;
73980;SDS011;62348;51.412;5.436;2023-08-30T06:20:19;23.15;;;14.90;;
73980;SDS011;62348;51.412;5.436;2023-08-30T06:22:44;16.83;;;13.90;;
73980;SDS011;62348;51.412;5.436;2023-08-30T06:25:09;18.08;;;13.45;;
73980;SDS011;62348;51.412;5.436;2023-08-30T06:27:40;18.88;;;15.15;;
73980;SDS011;62348;51.412;5.436;2023-08-30T06:30:07;19.05;;;14.38;;
73980;SDS011;62348;51.412;5.436;2023-08-30T06:32:33;17.65;;;14.07;;
73980;SDS011;62348;51.412;5.436;2023-08-30T06:34:58;18.75;;;13.63;;
73980;SDS011;62348;51.412;5.436;2023-08-30T06:37:25;17.83;;;13.68;;
73980;SDS011;62348;51.412;5.436;2023-08-30T06:39:50;20.17;;;14.60;;
73980;SDS011;62348;51.412;5.436;2023-08-30T06:42:15;18.00;;;13.52;;
73980;SDS011;62348;51.412;5.436;2023-08-30T06:44:41;17.52;;;14.48;;
73980;SDS011;62348;51.412;5.436;2023-08-30T06:47:07;20.17;;;14.68;;
73980;SDS011;62348;51.412;5.436;2023-08-30T06:49:32;20.25;;;13.93;;
73980;SDS011;62348;51.412;5.436;2023-08-30T06:51:58;19.30;;;13.65;;
73980;SDS011;62348;51.412;5.436;2023-08-30T06:54:26;16.48;;;13.25;;
73980;SDS011;62348;51.412;5.436;2023-08-30T06:56:58;18.80;;;14.57;;
73980;SDS011;62348;51.412;5.436;2023-08-30T06:59:25;17.77;;;13.63;;
73980;SDS011;62348;51.412;5.436;2023-08-30T07:01:51;18.30;;;13.68;;
73980;SDS011;62348;51.412;5.436;2023-08-30T07:04:17;17.63;;;14.23;;
73980;SDS011;62348;51.412;5.436;2023-08-30T07:06:43;18.85;;;13.77;;
73980;SDS011;62348;51.412;5.436;2023-08-30T07:09:08;18.73;;;13.82;;
73980;SDS011;62348;51.412;5.436;2023-08-30T07:11:34;17.85;;;13.10;;
73980;SDS011;62348;51.412;5.436;2023-08-30T07:13:59;16.77;;;12.80;;
73980;SDS011;62348;51.412;5.436;2023-08-30T07:16:25;13.95;;;11.68;;
73980;SDS011;62348;51.412;5.436;2023-08-30T07:18:50;14.70;;;11.73;;
73980;SDS011;62348;51.412;5.436;2023-08-30T07:21:16;14.43;;;10.93;;
73980;SDS011;62348;51.412;5.436;2023-08-30T07:23:41;14.77;;;10.35;;
73980;SDS011;62348;51.412;5.436;2023-08-30T07:26:07;12.07;;;9.38;;
73980;SDS011;62348;51.412;5.436;2023-08-30T07:28:32;12.60;;;9.32;;
73980;SDS011;62348;51.412;5.436;2023-08-30T07:31:04;12.30;;;9.73;;
73980;SDS011;62348;51.412;5.436;2023-08-30T07:33:30;11.98;;;8.45;;
73980;SDS011;62348;51.412;5.436;2023-08-30T07:35:56;10.52;;;8.55;;
73980;SDS011;62348;51.412;5.436;2023-08-30T07:38:21;11.40;;;8.48;;
73980;SDS011;62348;51.412;5.436;2023-08-30T07:40:47;10.73;;;7.88;;
73980;SDS011;62348;51.412;5.436;2023-08-30T07:43:12;10.18;;;7.88;;
73980;SDS011;62348;51.412;5.436;2023-08-30T07:45:37;7.85;;;7.05;;
73980;SDS011;62348;51.412;5.436;2023-08-30T07:48:03;10.15;;;8.02;;
73980;SDS011;62348;51.412;5.436;2023-08-30T07:50:28;7.28;;;6.57;;
73980;SDS011;62348;51.412;5.436;2023-08-30T07:52:54;8.60;;;6.63;;
73980;SDS011;62348;51.412;5.436;2023-08-30T07:55:19;9.23;;;7.35;;
73980;SDS011;62348;51.412;5.436;2023-08-30T07:57:45;10.15;;;7.53;;
73980;SDS011;62348;51.412;5.436;2023-08-30T08:00:11;7.75;;;6.55;;
73980;SDS011;62348;51.412;5.436;2023-08-30T08:02:37;9.05;;;7.20;;
73980;SDS011;62348;51.412;5.436;2023-08-30T08:05:02;8.55;;;6.80;;
73980;SDS011;62348;51.412;5.436;2023-08-30T08:07:28;9.13;;;7.40;;
73980;SDS011;62348;51.412;5.436;2023-08-30T08:09:53;11.70;;;7.63;;
73980;SDS011;62348;51.412;5.436;2023-08-30T08:12:20;11.02;;;6.68;;
73980;SDS011;62348;51.412;5.436;2023-08-30T08:14:45;8.18;;;7.00;;
73980;SDS011;62348;51.412;5.436;2023-08-30T08:17:10;8.95;;;6.72;;
73980;SDS011;62348;51.412;5.436;2023-08-30T08:19:36;8.50;;;6.75;;
73980;SDS011;62348;51.412;5.436;2023-08-30T08:22:04;8.05;;;6.93;;
73980;SDS011;62348;51.412;5.436;2023-08-30T08:24:30;9.82;;;7.40;;
73980;SDS011;62348;51.412;5.436;2023-08-30T08:26:56;8.38;;;6.88;;
73980;SDS011;62348;51.412;5.436;2023-08-30T08:29:21;8.82;;;7.05;;
73980;SDS011;62348;51.412;5.436;2023-08-30T08:31:46;8.27;;;6.53;;
73980;SDS011;62348;51.412;5.436;2023-08-30T08:34:12;8.65;;;7.22;;
73980;SDS011;62348;51.412;5.436;2023-08-30T08:36:38;7.38;;;6.68;;
73980;SDS011;62348;51.412;5.436;2023-08-30T08:39:05;8.80;;;6.80;;
73980;SDS011;62348;51.412;5.436;2023-08-30T08:41:41;7.80;;;6.40;;
73980;SDS011;62348;51.412;5.436;2023-08-30T08:44:07;12.15;;;7.00;;
73980;SDS011;62348;51.412;5.436;2023-08-30T08:46:36;8.60;;;6.85;;
73980;SDS011;62348;51.412;5.436;2023-08-30T08:49:13;8.82;;;6.78;;
73980;SDS011;62348;51.412;5.436;2023-08-30T08:51:40;10.63;;;6.90;;
73980;SDS011;62348;51.412;5.436;2023-08-30T08:54:06;8.50;;;6.65;;
73980;SDS011;62348;51.412;5.436;2023-08-30T08:56:34;7.97;;;6.03;;
73980;SDS011;62348;51.412;5.436;2023-08-30T08:59:00;7.40;;;6.00;;
73980;SDS011;62348;51.412;5.436;2023-08-30T09:01:26;8.60;;;6.22;;
73980;SDS011;62348;51.412;5.436;2023-08-30T09:03:52;7.40;;;6.10;;
73980;SDS011;62348;51.412;5.436;2023-08-30T09:06:18;7.13;;;5.07;;
73980;SDS011;62348;51.412;5.436;2023-08-30T09:08:44;5.47;;;4.70;;
73980;SDS011;62348;51.412;5.436;2023-08-30T09:11:09;6.57;;;5.03;;
73980;SDS011;62348;51.412;5.436;2023-08-30T09:13:35;6.88;;;4.88;;
73980;SDS011;62348;51.412;5.436;2023-08-30T09:16:00;6.95;;;4.97;;
73980;SDS011;62348;51.412;5.436;2023-08-30T09:18:27;5.60;;;4.53;;
73980;SDS011;62348;51.412;5.436;2023-08-30T09:21:04;6.15;;;4.82;;
73980;SDS011;62348;51.412;5.436;2023-08-30T09:23:30;5.53;;;5.03;;
73980;SDS011;62348;51.412;5.436;2023-08-30T09:25:55;4.78;;;4.13;;
73980;SDS011;62348;51.412;5.436;2023-08-30T09:28:21;4.78;;;4.22;;
73980;SDS011;62348;51.412;5.436;2023-08-30T09:30:49;5.18;;;4.35;;
73980;SDS011;62348;51.412;5.436;2023-08-30T09:33:15;4.97;;;4.45;;
73980;SDS011;62348;51.412;5.436;2023-08-30T09:35:45;4.80;;;4.38;;
73980;SDS011;62348;51.412;5.436;2023-08-30T09:38:20;4.95;;;4.43;;
73980;SDS011;62348;51.412;5.436;2023-08-30T09:40:46;4.53;;;4.13;;
73980;SDS011;62348;51.412;5.436;2023-08-30T09:43:12;5.13;;;4.53;;
73980;SDS011;62348;51.412;5.436;2023-08-30T09:45:38;5.70;;;5.10;;
73980;SDS011;62348;51.412;5.436;2023-08-30T09:48:04;8.82;;;5.60;;
73980;SDS011;62348;51.412;5.436;2023-08-30T09:50:33;10.25;;;5.35;;
73980;SDS011;62348;51.412;5.436;2023-08-30T09:53:01;9.30;;;5.43;;
73980;SDS011;62348;51.412;5.436;2023-08-30T09:55:34;5.68;;;5.10;;
73980;SDS011;62348;51.412;5.436;2023-08-30T09:58:03;6.40;;;5.20;;
73980;SDS011;62348;51.412;5.436;2023-08-30T10:00:30;9.35;;;5.90;;
73980;SDS011;62348;51.412;5.436;2023-08-30T10:02:57;6.72;;;5.32;;
73980;SDS011;62348;51.412;5.436;2023-08-30T10:05:23;6.63;;;6.03;;
73980;SDS011;62348;51.412;5.436;2023-08-30T10:07:51;7.03;;;5.30;;
73980;SDS011;62348;51.412;5.436;2023-08-30T10:10:17;5.80;;;5.22;;
73980;SDS011;62348;51.412;5.436;2023-08-30T10:12:44;6.22;;;5.63;;
73980;SDS011;62348;51.412;5.436;2023-08-30T10:15:11;6.25;;;5.35;;
73980;SDS011;62348;51.412;5.436;2023-08-30T10:17:37;8.02;;;5.82;;
73980;SDS011;62348;51.412;5.436;2023-08-30T10:20:06;6.80;;;6.10;;
73980;SDS011;62348;51.412;5.436;2023-08-30T10:22:32;7.13;;;6.35;;
73980;SDS011;62348;51.412;5.436;2023-08-30T10:25:02;6.72;;;6.03;;
73980;SDS011;62348;51.412;5.436;2023-08-30T10:27:31;6.75;;;5.82;;
73980;SDS011;62348;51.412;5.436;2023-08-30T10:30:03;7.13;;;5.97;;
73980;SDS011;62348;51.412;5.436;2023-08-30T10:32:31;6.83;;;6.10;;
73980;SDS011;62348;51.412;5.436;2023-08-30T10:35:00;6.25;;;5.65;;
73980;SDS011;62348;51.412;5.436;2023-08-30T10:37:29;6.40;;;5.80;;
73980;SDS011;62348;51.412;5.436;2023-08-30T10:40:04;6.82;;;6.22;;
73980;SDS011;62348;51.412;5.436;2023-08-30T10:42:31;8.45;;;6.07;;
73980;SDS011;62348;51.412;5.436;2023-08-30T10:47:24;7.95;;;6.90;;
73980;SDS011;62348;51.412;5.436;2023-08-30T10:49:53;7.78;;;6.50;;
73980;SDS011;62348;51.412;5.436;2023-08-30T10:52:23;8.27;;;7.25;;
73980;SDS011;62348;51.412;5.436;2023-08-30T10:54:49;7.68;;;6.90;;
73980;SDS011;62348;51.412;5.436;2023-08-30T10:57:18;9.52;;;6.90;;
73980;SDS011;62348;51.412;5.436;2023-08-30T11:02:34;6.97;;;6.28;;
73980;SDS011;62348;51.412;5.436;2023-08-30T11:05:02;6.32;;;5.72;;
73980;SDS011;62348;51.412;5.436;2023-08-30T11:07:28;6.60;;;6.00;;
73980;SDS011;62348;51.412;5.436;2023-08-30T11:09:55;8.65;;;7.75;;
73980;SDS011;62348;51.412;5.436;2023-08-30T11:12:20;8.82;;;6.57;;
73980;SDS011;62348;51.412;5.436;2023-08-30T11:14:51;7.07;;;6.03;;
73980;SDS011;62348;51.412;5.436;2023-08-30T11:17:17;7.60;;;6.82;;
73980;SDS011;62348;51.412;5.436;2023-08-30T11:19:43;7.35;;;5.68;;
73980;SDS011;62348;51.412;5.436;2023-08-30T11:22:09;6.55;;;5.95;;
73980;SDS011;62348;51.412;5.436;2023-08-30T11:24:35;6.82;;;6.22;;
73980;SDS011;62348;51.412;5.436;2023-08-30T11:27:01;6.85;;;5.38;;
73980;SDS011;62348;51.412;5.436;2023-08-30T11:29:26;6.85;;;6.13;;
73980;SDS011;62348;51.412;5.436;2023-08-30T11:31:52;7.35;;;6.55;;
73980;SDS011;62348;51.412;5.436;2023-08-30T11:34:20;6.32;;;5.68;;
73980;SDS011;62348;51.412;5.436;2023-08-30T11:36:49;6.35;;;5.72;;
73980;SDS011;62348;51.412;5.436;2023-08-30T11:39:15;7.93;;;6.40;;
73980;SDS011;62348;51.412;5.436;2023-08-30T11:41:44;8.23;;;6.95;;
73980;SDS011;62348;51.412;5.436;2023-08-30T11:44:09;7.85;;;7.05;;
73980;SDS011;62348;51.412;5.436;2023-08-30T11:46:35;7.95;;;7.25;;
73980;SDS011;62348;51.412;5.436;2023-08-30T11:49:00;7.95;;;6.38;;
73980;SDS011;62348;51.412;5.436;2023-08-30T11:51:27;10.18;;;6.03;;
73980;SDS011;62348;51.412;5.436;2023-08-30T11:53:54;8.25;;;7.40;;
73980;SDS011;62348;51.412;5.436;2023-08-30T11:56:20;5.00;;;4.55;;
73980;SDS011;62348;51.412;5.436;2023-08-30T11:58:46;7.93;;;5.20;;
73980;SDS011;62348;51.412;5.436;2023-08-30T12:01:12;9.35;;;6.40;;
73980;SDS011;62348;51.412;5.436;2023-08-30T12:03:38;6.90;;;5.38;;
73980;SDS011;62348;51.412;5.436;2023-08-30T12:06:08;8.55;;;4.97;;
73980;SDS011;62348;51.412;5.436;2023-08-30T12:08:34;11.25;;;5.00;;
73980;SDS011;62348;51.412;5.436;2023-08-30T12:11:00;5.47;;;3.47;;
73980;SDS011;62348;51.412;5.436;2023-08-30T12:13:26;6.57;;;3.10;;
73980;SDS011;62348;51.412;5.436;2023-08-30T12:15:59;6.05;;;3.28;;
73980;SDS011;62348;51.412;5.436;2023-08-30T12:18:31;9.98;;;3.25;;
73980;SDS011;62348;51.412;5.436;2023-08-30T12:23:32;7.93;;;3.72;;
73980;SDS011;62348;51.412;5.436;2023-08-30T12:28:27;6.85;;;3.50;;
73980;SDS011;62348;51.412;5.436;2023-08-30T12:30:53;10.82;;;2.90;;
73980;SDS011;62348;51.412;5.436;2023-08-30T12:33:19;7.10;;;3.05;;
73980;SDS011;62348;51.412;5.436;2023-08-30T12:35:44;8.20;;;2.90;;
73980;SDS011;62348;51.412;5.436;2023-08-30T12:38:10;7.90;;;2.80;;
73980;SDS011;62348;51.412;5.436;2023-08-30T12:40:46;7.63;;;2.75;;
73980;SDS011;62348;51.412;5.436;2023-08-30T12:43:15;7.93;;;2.85;;
73980;SDS011;62348;51.412;5.436;2023-08-30T12:45:41;5.10;;;2.33;;
73980;SDS011;62348;51.412;5.436;2023-08-30T12:48:08;5.85;;;2.55;;
73980;SDS011;62348;51.412;5.436;2023-08-30T12:50:35;7.80;;;2.35;;
73980;SDS011;62348;51.412;5.436;2023-08-30T12:53:04;5.10;;;2.25;;
73980;SDS011;62348;51.412;5.436;2023-08-30T12:55:31;7.88;;;2.65;;
73980;SDS011;62348;51.412;5.436;2023-08-30T12:57:57;5.72;;;2.22;;
73980;SDS011;62348;51.412;5.436;2023-08-30T13:00:23;5.53;;;2.53;;
73980;SDS011;62348;51.412;5.436;2023-08-30T13:02:49;6.70;;;2.25;;
73980;SDS011;62348;51.412;5.436;2023-08-30T13:05:14;5.38;;;2.38;;
73980;SDS011;62348;51.412;5.436;2023-08-30T13:07:40;5.63;;;2.40;;
73980;SDS011;62348;51.412;5.436;2023-08-30T13:10:06;6.00;;;2.85;;
73980;SDS011;62348;51.412;5.436;2023-08-30T13:12:31;5.72;;;2.30;;
73980;SDS011;62348;51.412;5.436;2023-08-30T13:14:57;7.97;;;3.13;;
73980;SDS011;62348;51.412;5.436;2023-08-30T13:17:22;8.07;;;2.30;;
73980;SDS011;62348;51.412;5.436;2023-08-30T13:19:48;7.05;;;2.45;;
73980;SDS011;62348;51.412;5.436;2023-08-30T13:22:14;7.50;;;2.15;;
73980;SDS011;62348;51.412;5.436;2023-08-30T13:24:39;5.03;;;2.58;;
73980;SDS011;62348;51.412;5.436;2023-08-30T13:27:05;7.10;;;2.80;;
73980;SDS011;62348;51.412;5.436;2023-08-30T13:29:31;6.18;;;2.92;;
73980;SDS011;62348;51.412;5.436;2023-08-30T13:31:56;7.78;;;2.22;;
73980;SDS011;62348;51.412;5.436;2023-08-30T13:34:22;8.48;;;2.00;;
73980;SDS011;62348;51.412;5.436;2023-08-30T13:36:47;5.20;;;2.20;;
73980;SDS011;62348;51.412;5.436;2023-08-30T13:39:12;4.82;;;1.85;;
73980;SDS011;62348;51.412;5.436;2023-08-30T13:41:39;6.60;;;2.10;;
73980;SDS011;62348;51.412;5.436;2023-08-30T13:44:05;6.40;;;2.10;;
73980;SDS011;62348;51.412;5.436;2023-08-30T13:46:31;11.15;;;2.83;;
73980;SDS011;62348;51.412;5.436;2023-08-30T13:48:56;5.57;;;2.03;;
73980;SDS011;62348;51.412;5.436;2023-08-30T13:51:23;5.53;;;2.08;;
73980;SDS011;62348;51.412;5.436;2023-08-30T13:53:49;7.43;;;3.35;;
73980;SDS011;62348;51.412;5.436;2023-08-30T13:56:15;6.90;;;1.77;;
73980;SDS011;62348;51.412;5.436;2023-08-30T13:58:41;6.20;;;1.60;;
73980;SDS011;62348;51.412;5.436;2023-08-30T14:01:06;6.60;;;1.90;;
73980;SDS011;62348;51.412;5.436;2023-08-30T14:03:32;7.05;;;1.70;;
73980;SDS011;62348;51.412;5.436;2023-08-30T14:05:58;5.30;;;1.55;;
73980;SDS011;62348;51.412;5.436;2023-08-30T14:08:23;4.38;;;1.60;;
73980;SDS011;62348;51.412;5.436;2023-08-30T14:10:48;6.43;;;1.60;;
73980;SDS011;62348;51.412;5.436;2023-08-30T14:13:14;4.72;;;1.85;;
73980;SDS011;62348;51.412;5.436;2023-08-30T14:15:40;6.15;;;1.95;;
73980;SDS011;62348;51.412;5.436;2023-08-30T14:18:06;6.80;;;1.77;;
73980;SDS011;62348;51.412;5.436;2023-08-30T14:20:32;9.07;;;2.05;;
73980;SDS011;62348;51.412;5.436;2023-08-30T14:22:57;5.18;;;1.52;;
73980;SDS011;62348;51.412;5.436;2023-08-30T14:25:23;5.95;;;1.63;;
73980;SDS011;62348;51.412;5.436;2023-08-30T14:27:48;5.28;;;1.55;;
73980;SDS011;62348;51.412;5.436;2023-08-30T14:30:14;4.10;;;1.27;;
73980;SDS011;62348;51.412;5.436;2023-08-30T14:32:40;6.05;;;1.75;;
73980;SDS011;62348;51.412;5.436;2023-08-30T14:35:05;6.32;;;1.17;;
73980;SDS011;62348;51.412;5.436;2023-08-30T14:37:31;5.50;;;1.50;;
73980;SDS011;62348;51.412;5.436;2023-08-30T14:39:56;3.45;;;1.38;;
73980;SDS011;62348;51.412;5.436;2023-08-30T14:42:22;5.82;;;1.45;;
73980;SDS011;62348;51.412;5.436;2023-08-30T14:44:51;7.30;;;1.48;;
73980;SDS011;62348;51.412;5.436;2023-08-30T14:47:17;2.75;;;1.30;;
73980;SDS011;62348;51.412;5.436;2023-08-30T14:49:44;4.18;;;1.38;;